Time;durP1;ratioP1;P1;durP2;ratioP2;P2;SDS_P1;SDS_P2;PMS_P1;PMS_P2;Temp;Humidity;BMP_temperature;BMP_pressure;BME280_temperature;BME280_humidity;BME280_pressure;Samples;Min_cycle;Max_cycle;Signal;HPM_P1;HPM_P2
2022/03/03 00:02:01;;;;;;;18.63;9.33;;;0.60;99.90;;;;;;5029887;28;20594;-71
2022/03/03 00:04:28;;;;;;;18.33;8.57;;;0.60;99.90;;;;;;5029475;28;20212;-71
2022/03/03 00:06:55;;;;;;;17.10;8.53;;;0.60;99.90;;;;;;5025301;28;20194;-71
2022/03/03 00:09:22;;;;;;;17.73;8.60;;;0.50;99.90;;;;;;5029861;28;20701;-71
2022/03/03 00:11:49;;;;;;;19.00;9.30;;;0.50;99.90;;;;;;5029919;28;20230;-71
2022/03/03 00:14:16;;;;;;;17.00;8.80;;;0.70;99.90;;;;;;5029587;28;20202;-71
2022/03/03 00:16:42;;;;;;;18.30;9.50;;;0.80;99.90;;;;;;5029235;28;20219;-71
2022/03/03 00:19:09;;;;;;;18.97;9.17;;;0.90;99.90;;;;;;5029606;28;20250;-72
2022/03/03 00:21:36;;;;;;;19.23;9.17;;;0.90;99.90;;;;;;5029348;28;20477;-72
2022/03/03 00:24:03;;;;;;;18.53;9.20;;;0.80;99.90;;;;;;5029271;28;20192;-73
2022/03/03 00:26:30;;;;;;;19.17;9.03;;;0.70;99.90;;;;;;5029584;28;20214;-71
2022/03/03 00:28:56;;;;;;;21.87;9.13;;;0.70;99.90;;;;;;5029393;28;20206;-71
2022/03/03 00:31:23;;;;;;;16.07;8.67;;;0.60;99.90;;;;;;5028306;28;20195;-71
2022/03/03 00:33:50;;;;;;;17.40;8.67;;;0.60;99.90;;;;;;5028779;28;20722;-73
2022/03/03 00:36:17;;;;;;;15.73;8.47;;;0.50;99.90;;;;;;5020108;28;20226;-72
2022/03/03 00:38:44;;;;;;;15.63;8.77;;;0.40;99.90;;;;;;5030643;28;20200;-71
2022/03/03 00:41:10;;;;;;;19.63;8.80;;;0.40;99.90;;;;;;5030082;28;20210;-71
2022/03/03 00:43:37;;;;;;;20.57;8.47;;;0.40;99.90;;;;;;5027702;28;20673;-72
2022/03/03 00:46:04;;;;;;;14.43;8.53;;;0.30;99.90;;;;;;5027668;28;20238;-72
2022/03/03 00:48:30;;;;;;;17.60;9.13;;;0.30;99.90;;;;;;5030787;28;20195;-74
2022/03/03 00:50:57;;;;;;;18.50;9.17;;;0.30;99.90;;;;;;5028161;28;20187;-72
2022/03/03 00:53:23;;;;;;;16.50;8.07;;;0.50;99.90;;;;;;5024910;28;20202;-72
2022/03/03 00:55:50;;;;;;;18.07;9.03;;;0.60;99.90;;;;;;5028238;28;20693;-71
2022/03/03 00:58:17;;;;;;;19.80;8.67;;;0.50;99.90;;;;;;5030343;28;20200;-71
2022/03/03 01:00:44;;;;;;;18.33;9.53;;;0.40;99.90;;;;;;5029985;28;20254;-71
2022/03/03 01:03:11;;;;;;;16.03;8.30;;;0.50;99.90;;;;;;5027464;28;20195;-72
2022/03/03 01:05:38;;;;;;;15.73;8.60;;;0.40;99.90;;;;;;5025161;28;20242;-71
2022/03/03 01:08:08;;;;;;;17.27;8.33;;;0.10;99.90;;;;;;5030525;28;20188;-71
2022/03/03 01:10:36;;;;;;;17.43;8.10;;;0.00;99.90;;;;;;5028605;28;20261;-71
2022/03/03 01:13:03;;;;;;;15.43;8.97;;;-0.10;99.90;;;;;;5022290;28;20195;-72
2022/03/03 01:15:29;;;;;;;18.13;8.83;;;-0.20;99.90;;;;;;5027199;28;20220;-70
2022/03/03 01:17:56;;;;;;;15.20;8.63;;;-0.20;99.90;;;;;;5029963;28;20198;-70
2022/03/03 01:20:23;;;;;;;18.27;8.67;;;-0.30;99.90;;;;;;5022244;28;20602;-70
2022/03/03 01:22:50;;;;;;;17.10;9.43;;;-0.40;99.90;;;;;;5027765;28;20211;-70
2022/03/03 01:25:17;;;;;;;18.07;9.00;;;-0.20;99.90;;;;;;5024248;28;20243;-70
2022/03/03 01:27:45;;;;;;;19.23;9.17;;;-0.10;99.90;;;;;;5028149;28;20571;-70
2022/03/03 01:30:12;;;;;;;16.57;9.23;;;0.10;99.90;;;;;;5029209;28;20209;-70
2022/03/03 01:32:39;;;;;;;19.20;10.00;;;0.20;99.90;;;;;;5033067;28;20202;-70
2022/03/03 01:35:06;;;;;;;21.10;9.30;;;0.30;99.90;;;;;;5027445;28;20224;-70
2022/03/03 01:37:32;;;;;;;19.00;9.40;;;0.20;99.90;;;;;;5029018;28;20199;-70
2022/03/03 01:39:59;;;;;;;19.47;9.20;;;0.10;99.90;;;;;;5029910;28;20685;-70
2022/03/03 01:42:26;;;;;;;18.77;9.43;;;0.10;99.90;;;;;;5025353;28;20373;-70
2022/03/03 01:44:52;;;;;;;19.10;9.27;;;0.20;99.90;;;;;;5025191;28;20239;-70
2022/03/03 01:47:24;;;;;;;17.03;8.87;;;0.20;99.90;;;;;;5028686;28;20216;-70
2022/03/03 01:49:53;;;;;;;18.43;9.03;;;0.20;99.90;;;;;;5028397;28;20215;-70
2022/03/03 01:52:20;;;;;;;18.50;9.57;;;0.10;99.90;;;;;;5025414;28;20592;-70
2022/03/03 01:54:47;;;;;;;22.57;9.63;;;0.00;99.90;;;;;;5027993;28;20653;-70
2022/03/03 01:57:19;;;;;;;19.30;9.57;;;-0.10;99.90;;;;;;5027070;28;20195;-70
2022/03/03 01:59:47;;;;;;;17.87;8.97;;;0.00;99.90;;;;;;5028396;28;20200;-70
2022/03/03 02:02:14;;;;;;;18.97;9.10;;;0.00;99.90;;;;;;5026240;28;20234;-72
2022/03/03 02:04:41;;;;;;;18.83;8.90;;;-0.20;99.90;;;;;;5028211;28;20250;-72
2022/03/03 02:07:10;;;;;;;17.87;8.07;;;-0.30;99.90;;;;;;5029212;28;20279;-72
2022/03/03 02:09:39;;;;;;;17.03;8.40;;;-0.40;99.90;;;;;;5026481;28;20207;-70
2022/03/03 02:12:06;;;;;;;17.97;9.40;;;-0.50;99.90;;;;;;5036442;28;20222;-70
2022/03/03 02:14:46;;;;;;;18.07;9.23;;;-0.50;99.90;;;;;;5027797;28;20203;-70
2022/03/03 02:17:13;;;;;;;16.00;7.97;;;-0.50;99.90;;;;;;5028287;28;20541;-70
2022/03/03 02:19:40;;;;;;;17.87;9.10;;;-0.50;99.90;;;;;;5026414;28;20202;-70
2022/03/03 02:22:08;;;;;;;21.70;9.20;;;-0.40;99.90;;;;;;5028353;28;20219;-70
2022/03/03 02:24:36;;;;;;;19.53;7.90;;;-0.40;99.90;;;;;;5025253;28;20434;-69
2022/03/03 02:27:04;;;;;;;16.90;9.17;;;-0.40;99.90;;;;;;5028579;28;20195;-70
2022/03/03 02:29:32;;;;;;;17.83;10.07;;;-0.50;99.90;;;;;;5028647;28;20195;-70
2022/03/03 02:32:01;;;;;;;16.90;9.00;;;-0.50;99.90;;;;;;5026457;28;20200;-70
2022/03/03 02:34:28;;;;;;;16.30;8.63;;;-0.40;99.90;;;;;;5026271;28;20697;-70
2022/03/03 02:36:55;;;;;;;19.57;9.20;;;-0.20;99.90;;;;;;5023432;28;20198;-70
2022/03/03 02:39:21;;;;;;;15.77;7.93;;;-0.30;99.90;;;;;;5025397;28;20570;-70
2022/03/03 02:41:48;;;;;;;18.93;8.10;;;-0.30;99.90;;;;;;5027726;28;20206;-70
2022/03/03 02:44:15;;;;;;;19.50;9.27;;;-0.40;99.90;;;;;;5024835;28;20206;-70
2022/03/03 02:46:42;;;;;;;21.50;9.77;;;-0.60;99.90;;;;;;5027336;28;20224;-70
2022/03/03 02:49:11;;;;;;;18.83;9.20;;;-0.50;99.90;;;;;;5026080;28;20206;-70
2022/03/03 02:51:38;;;;;;;19.30;8.70;;;-0.30;99.90;;;;;;5027015;28;20191;-70
2022/03/03 02:54:06;;;;;;;16.17;8.60;;;-0.30;99.90;;;;;;5018769;28;20458;-70
2022/03/03 02:57:53;;;;;;;16.13;8.13;;;-0.50;99.90;;;;;;5028425;28;20242;-69
2022/03/03 02:59:20;;;;;;;16.50;8.33;;;-0.60;99.90;;;;;;5025923;28;20458;-69
2022/03/03 03:01:46;;;;;;;16.23;8.07;;;-0.80;99.90;;;;;;5028361;28;20879;-70
2022/03/03 03:04:13;;;;;;;21.00;9.23;;;-0.70;99.90;;;;;;5024455;28;20476;-70
2022/03/03 03:06:40;;;;;;;16.27;7.47;;;-0.60;99.90;;;;;;5028155;28;20478;-70
2022/03/03 03:09:07;;;;;;;18.67;8.83;;;-0.50;99.90;;;;;;5026506;28;20199;-69
2022/03/03 03:11:33;;;;;;;17.83;8.60;;;-0.70;99.90;;;;;;5026455;28;20199;-71
2022/03/03 03:14:00;;;;;;;19.17;9.67;;;-0.70;99.90;;;;;;5026273;28;20564;-71
2022/03/03 03:16:27;;;;;;;19.03;9.47;;;-0.60;99.90;;;;;;5028927;28;20548;-71
2022/03/03 03:18:54;;;;;;;17.70;8.53;;;-0.60;99.90;;;;;;5022127;28;20294;-72
2022/03/03 03:21:20;;;;;;;18.40;8.97;;;-0.50;99.90;;;;;;5027678;28;20821;-71
2022/03/03 03:23:47;;;;;;;17.63;9.37;;;-0.40;99.90;;;;;;5026050;28;20206;-71
2022/03/03 03:26:14;;;;;;;15.33;8.03;;;-0.40;99.90;;;;;;5025684;28;20226;-73
2022/03/03 03:28:40;;;;;;;17.37;9.57;;;-0.40;99.90;;;;;;5025900;28;20446;-71
2022/03/03 03:31:07;;;;;;;18.70;9.13;;;-0.50;99.90;;;;;;5026400;28;20949;-71
2022/03/03 03:33:34;;;;;;;20.03;8.63;;;-0.50;99.90;;;;;;5027492;28;20469;-72
2022/03/03 03:36:01;;;;;;;18.97;9.07;;;-0.60;99.90;;;;;;5025114;28;20495;-71
2022/03/03 03:38:27;;;;;;;19.53;8.50;;;-0.70;99.90;;;;;;5027331;28;20450;-72
2022/03/03 03:40:54;;;;;;;22.57;10.43;;;-0.80;99.90;;;;;;5022468;28;20471;-71
2022/03/03 03:43:21;;;;;;;16.50;8.63;;;-0.90;99.90;;;;;;5025885;28;20831;-70
2022/03/03 03:45:47;;;;;;;16.53;8.97;;;-0.90;99.90;;;;;;5029277;28;20504;-70
2022/03/03 03:48:15;;;;;;;22.20;9.80;;;-1.00;99.90;;;;;;5031240;28;20552;-70
2022/03/03 03:50:41;;;;;;;15.87;8.67;;;-1.10;99.90;;;;;;5028919;28;20458;-71
2022/03/03 03:53:09;;;;;;;19.67;8.23;;;-1.10;99.90;;;;;;5026741;28;20553;-70
2022/03/03 03:55:36;;;;;;;17.73;9.07;;;-1.10;99.90;;;;;;5029522;28;20477;-71
2022/03/03 03:58:03;;;;;;;18.57;8.27;;;-1.20;99.90;;;;;;5030975;28;20461;-70
2022/03/03 04:00:30;;;;;;;16.97;8.60;;;-1.20;99.90;;;;;;5030902;28;20454;-72
2022/03/03 04:02:57;;;;;;;17.33;7.63;;;-1.20;99.90;;;;;;5029149;28;20450;-71
2022/03/03 04:05:24;;;;;;;18.80;8.47;;;-1.10;99.90;;;;;;5029557;28;20485;-70
2022/03/03 04:07:51;;;;;;;19.20;8.93;;;-1.10;99.90;;;;;;5030852;28;20430;-70
2022/03/03 04:10:18;;;;;;;16.30;7.97;;;-1.10;99.90;;;;;;5029893;28;20450;-69
2022/03/03 04:12:44;;;;;;;18.80;8.43;;;-1.00;99.90;;;;;;5030106;28;20446;-70
2022/03/03 04:15:11;;;;;;;17.50;8.50;;;-1.00;99.90;;;;;;5029654;28;20487;-72
2022/03/03 04:17:38;;;;;;;20.90;8.83;;;-1.00;99.90;;;;;;5030536;28;20465;-70
2022/03/03 04:20:07;;;;;;;16.03;8.10;;;-0.80;99.90;;;;;;5023843;28;20473;-69
2022/03/03 04:22:34;;;;;;;17.17;8.37;;;-0.80;99.90;;;;;;5027033;28;20680;-69
2022/03/03 04:25:03;;;;;;;19.00;8.93;;;-0.90;99.90;;;;;;5027916;28;20450;-69
2022/03/03 04:27:31;;;;;;;17.87;9.27;;;-1.00;99.90;;;;;;5029030;28;20461;-69
2022/03/03 04:29:58;;;;;;;21.97;8.60;;;-0.80;99.90;;;;;;5024066;28;20465;-69
2022/03/03 04:32:24;;;;;;;16.77;8.57;;;-0.80;99.90;;;;;;5029304;28;20955;-69
2022/03/03 04:34:51;;;;;;;18.80;9.27;;;-0.70;99.90;;;;;;5028303;28;20991;-69
2022/03/03 04:37:18;;;;;;;17.17;7.57;;;-0.80;99.90;;;;;;5029837;28;20457;-69
2022/03/03 04:39:44;;;;;;;18.43;8.63;;;-1.00;99.90;;;;;;5027379;28;20472;-69
2022/03/03 04:42:11;;;;;;;13.63;7.23;;;-1.10;99.90;;;;;;5025119;28;20441;-69
2022/03/03 04:44:37;;;;;;;13.83;7.83;;;-1.20;99.90;;;;;;5029902;28;20462;-69
2022/03/03 04:47:04;;;;;;;18.43;9.20;;;-1.40;99.90;;;;;;5027702;28;20566;-69
2022/03/03 04:49:31;;;;;;;17.67;8.73;;;-1.40;99.90;;;;;;5027406;28;20524;-69
2022/03/03 04:51:58;;;;;;;16.90;8.80;;;-1.40;99.90;;;;;;5029775;28;20465;-69
2022/03/03 04:54:25;;;;;;;18.83;9.70;;;-1.40;99.90;;;;;;5028544;28;20451;-69
2022/03/03 04:56:54;;;;;;;20.07;8.37;;;-1.50;99.90;;;;;;5030455;28;20992;-69
2022/03/03 04:59:24;;;;;;;17.80;8.63;;;-1.60;99.90;;;;;;5026202;28;20450;-69
2022/03/03 05:01:52;;;;;;;20.83;10.73;;;-1.60;99.90;;;;;;5025292;28;20956;-69
2022/03/03 05:04:19;;;;;;;20.87;9.57;;;-1.70;99.90;;;;;;5029932;28;20486;-69
2022/03/03 05:06:48;;;;;;;19.70;8.83;;;-1.80;99.90;;;;;;5027679;28;20486;-69
2022/03/03 05:09:14;;;;;;;18.83;9.33;;;-1.70;99.90;;;;;;5021773;28;20457;-69
2022/03/03 05:11:41;;;;;;;22.23;9.30;;;-1.60;99.90;;;;;;5028467;28;20442;-69
2022/03/03 05:14:11;;;;;;;20.40;9.50;;;-1.50;99.90;;;;;;5029482;28;20457;-69
2022/03/03 05:16:38;;;;;;;22.87;10.23;;;-1.20;99.90;;;;;;5029394;28;20863;-69
2022/03/03 05:19:05;;;;;;;18.37;9.37;;;-1.00;99.90;;;;;;5021587;28;20481;-69
2022/03/03 05:21:32;;;;;;;23.23;9.63;;;-0.90;99.90;;;;;;5024534;28;20455;-69
2022/03/03 05:24:02;;;;;;;20.03;9.37;;;-0.90;99.90;;;;;;5027030;28;20450;-69
2022/03/03 05:26:29;;;;;;;23.40;10.17;;;-0.90;99.90;;;;;;5026412;28;20488;-69
2022/03/03 05:28:55;;;;;;;22.03;10.53;;;-0.90;99.90;;;;;;5028754;28;20454;-68
2022/03/03 05:31:22;;;;;;;19.97;10.07;;;-1.00;99.90;;;;;;5026540;28;20457;-69
2022/03/03 05:33:49;;;;;;;21.03;9.60;;;-1.20;99.90;;;;;;5024491;28;20812;-69
2022/03/03 05:36:17;;;;;;;17.70;9.33;;;-1.30;99.90;;;;;;5022272;28;20475;-69
2022/03/03 05:38:43;;;;;;;23.37;9.70;;;-1.20;99.90;;;;;;5026373;28;20450;-69
2022/03/03 05:41:11;;;;;;;20.63;9.63;;;-1.30;99.90;;;;;;5026241;28;20980;-69
2022/03/03 05:43:38;;;;;;;22.13;10.23;;;-1.40;99.90;;;;;;5026918;28;20454;-69
2022/03/03 05:46:04;;;;;;;23.47;11.57;;;-1.50;99.90;;;;;;5029601;28;20489;-69
2022/03/03 05:48:32;;;;;;;24.87;11.50;;;-1.40;99.90;;;;;;5028159;28;20441;-69
2022/03/03 05:50:59;;;;;;;23.00;11.37;;;-1.30;99.90;;;;;;5024370;28;20426;-70
2022/03/03 05:53:26;;;;;;;20.33;10.10;;;-1.10;99.90;;;;;;5025471;28;20458;-69
2022/03/03 05:55:58;;;;;;;24.17;11.03;;;-1.00;99.90;;;;;;5028160;28;20485;-69
2022/03/03 05:58:38;;;;;;;19.97;9.40;;;-1.20;99.90;;;;;;5027972;28;20450;-69
2022/03/03 06:01:05;;;;;;;19.03;9.37;;;-1.40;99.90;;;;;;5024785;28;20461;-69
2022/03/03 06:03:33;;;;;;;22.07;10.50;;;-1.50;99.90;;;;;;5025883;28;20498;-72
2022/03/03 06:06:23;;;;;;;21.63;10.00;;;-1.60;99.90;;;;;;5024705;28;20610;-69
2022/03/03 06:09:10;;;;;;;22.63;10.03;;;-1.70;99.90;;;;;;5028802;28;20442;-69
2022/03/03 06:11:47;;;;;;;24.20;11.70;;;-1.70;99.90;;;;;;5024174;28;20446;-70
2022/03/03 06:14:19;;;;;;;18.77;8.93;;;-1.70;99.90;;;;;;5028092;28;21248;-69
2022/03/03 06:16:47;;;;;;;23.90;11.93;;;-1.70;99.90;;;;;;5021300;28;20484;-69
2022/03/03 06:19:20;;;;;;;21.33;10.67;;;-1.70;99.90;;;;;;5019744;28;20577;-69
2022/03/03 06:21:46;;;;;;;22.50;9.97;;;-1.60;99.90;;;;;;5025897;28;20463;-69
2022/03/03 06:24:13;;;;;;;25.73;11.43;;;-1.50;99.90;;;;;;5029037;28;21082;-69
2022/03/03 06:26:40;;;;;;;26.40;12.20;;;-1.50;99.90;;;;;;5026810;28;20563;-69
2022/03/03 06:29:07;;;;;;;23.37;12.13;;;-1.40;99.90;;;;;;5025491;28;20458;-67
2022/03/03 06:31:33;;;;;;;27.93;12.33;;;-1.20;99.90;;;;;;5025406;28;20952;-67
2022/03/03 06:34:00;;;;;;;28.93;11.63;;;-1.20;99.90;;;;;;5026521;28;20608;-67
2022/03/03 06:36:26;;;;;;;29.63;13.07;;;-1.10;99.90;;;;;;5025241;28;20466;-67
2022/03/03 06:38:53;;;;;;;27.30;12.47;;;-0.90;99.90;;;;;;5024857;28;20461;-67
2022/03/03 06:41:20;;;;;;;32.17;13.00;;;-0.70;99.90;;;;;;5026873;28;20573;-67
2022/03/03 06:43:46;;;;;;;23.37;11.67;;;-0.80;99.90;;;;;;5027755;28;20466;-67
2022/03/03 06:46:18;;;;;;;26.67;11.47;;;-0.90;99.90;;;;;;5026267;28;20521;-67
2022/03/03 06:48:45;;;;;;;24.43;10.70;;;-0.90;99.90;;;;;;5026995;28;20458;-67
2022/03/03 06:51:17;;;;;;;25.23;12.80;;;-0.80;99.90;;;;;;5027132;28;20442;-67
2022/03/03 06:53:46;;;;;;;28.30;12.47;;;-0.70;99.90;;;;;;5020610;28;20450;-67
2022/03/03 06:56:13;;;;;;;26.00;13.83;;;-0.70;99.90;;;;;;5017285;28;20873;-67
2022/03/03 06:58:40;;;;;;;26.53;13.73;;;-0.70;99.90;;;;;;5022839;28;20234;-67
2022/03/03 07:01:09;;;;;;;28.00;13.30;;;-0.70;99.90;;;;;;5013084;28;20465;-67
2022/03/03 07:03:39;;;;;;;23.93;12.27;;;-0.60;99.90;;;;;;5015670;28;20519;-66
2022/03/03 07:06:06;;;;;;;32.50;14.13;;;-0.30;99.90;;;;;;5019380;28;20477;-67
2022/03/03 07:08:33;;;;;;;30.03;13.77;;;-0.20;99.90;;;;;;5020552;28;20473;-67
2022/03/03 07:11:01;;;;;;;31.10;14.37;;;-0.20;99.90;;;;;;5016774;28;20442;-67
2022/03/03 07:13:28;;;;;;;29.77;14.30;;;-0.20;99.90;;;;;;5018603;28;20204;-67
2022/03/03 07:16:26;;;;;;;25.87;11.70;;;-0.20;99.90;;;;;;5019944;28;20285;-67
2022/03/03 07:18:54;;;;;;;21.37;11.40;;;-0.10;99.90;;;;;;5020778;28;20282;-67
2022/03/03 07:21:45;;;;;;;26.93;12.90;;;-0.10;99.90;;;;;;5025222;28;20678;-67
2022/03/03 07:24:28;;;;;;;25.97;13.50;;;0.00;99.90;;;;;;5023825;28;20286;-67
2022/03/03 07:27:01;;;;;;;28.30;13.20;;;0.00;99.90;;;;;;5023773;28;20227;-67
2022/03/03 07:29:37;;;;;;;25.93;13.70;;;0.10;99.90;;;;;;5024635;28;20736;-67
2022/03/03 07:32:07;;;;;;;27.10;13.07;;;0.10;99.90;;;;;;5025079;28;20195;-66
2022/03/03 07:34:38;;;;;;;29.53;14.10;;;0.10;99.90;;;;;;5022468;28;20204;-66
2022/03/03 07:37:12;;;;;;;26.47;13.87;;;0.20;99.90;;;;;;5023558;28;20204;-68
2022/03/03 07:39:44;;;;;;;26.53;13.47;;;0.50;99.90;;;;;;5021757;28;20208;-68
2022/03/03 07:42:20;;;;;;;24.57;13.03;;;0.60;99.90;;;;;;5021412;28;20191;-71
2022/03/03 07:44:47;;;;;;;27.03;13.30;;;0.90;99.90;;;;;;5021742;28;20206;-69
2022/03/03 07:47:14;;;;;;;25.30;12.83;;;1.10;99.90;;;;;;5024354;28;20757;-68
2022/03/03 07:49:45;;;;;;;27.70;13.30;;;1.10;99.90;;;;;;5024601;28;20203;-67
2022/03/03 07:52:11;;;;;;;24.67;12.97;;;1.20;99.90;;;;;;5018666;28;20669;-67
2022/03/03 07:54:38;;;;;;;25.83;13.40;;;1.30;99.90;;;;;;5023569;28;20695;-67
2022/03/03 07:57:08;;;;;;;24.67;12.73;;;1.40;99.90;;;;;;5019402;28;20212;-67
2022/03/03 07:59:41;;;;;;;27.20;13.80;;;1.50;99.90;;;;;;5022441;28;20208;-68
2022/03/03 08:02:08;;;;;;;24.90;13.43;;;1.70;99.90;;;;;;5020156;28;20200;-69
2022/03/03 08:04:35;;;;;;;27.00;13.40;;;1.70;99.90;;;;;;5019360;28;20201;-69
2022/03/03 08:07:09;;;;;;;24.17;13.57;;;1.70;99.90;;;;;;5022792;28;20307;-68
2022/03/03 08:09:38;;;;;;;28.43;14.00;;;1.60;99.90;;;;;;5025019;28;20226;-70
2022/03/03 08:12:07;;;;;;;24.07;13.90;;;1.80;99.90;;;;;;5023925;28;20205;-69
2022/03/03 08:14:35;;;;;;;26.73;14.50;;;1.90;99.90;;;;;;5018581;28;20201;-67
2022/03/03 08:17:03;;;;;;;26.53;14.33;;;2.00;99.90;;;;;;5016182;28;20229;-67
2022/03/03 08:19:30;;;;;;;27.67;13.57;;;2.20;99.90;;;;;;5023369;28;20201;-67
2022/03/03 08:21:58;;;;;;;29.17;13.37;;;2.20;99.90;;;;;;5021477;28;20207;-67
2022/03/03 08:24:26;;;;;;;26.20;13.37;;;2.40;99.90;;;;;;5020274;28;20687;-67
2022/03/03 08:26:56;;;;;;;25.20;13.67;;;2.40;99.90;;;;;;5021674;28;20231;-67
2022/03/03 08:29:23;;;;;;;26.77;13.50;;;2.40;99.90;;;;;;5020234;28;20686;-67
2022/03/03 08:31:56;;;;;;;30.80;13.60;;;2.50;99.90;;;;;;5022386;28;20200;-67
2022/03/03 08:34:57;;;;;;;28.60;13.17;;;2.60;99.90;;;;;;5022915;28;20201;-67
2022/03/03 08:37:29;;;;;;;27.63;13.20;;;2.70;99.90;;;;;;5024641;28;20239;-70
2022/03/03 08:40:00;;;;;;;25.30;12.83;;;2.90;99.90;;;;;;5018727;28;20209;-69
2022/03/03 08:42:33;;;;;;;26.33;13.03;;;3.10;99.90;;;;;;5024277;28;20211;-69
2022/03/03 08:45:04;;;;;;;28.90;14.23;;;3.20;99.90;;;;;;5025427;28;20240;-69
2022/03/03 08:47:32;;;;;;;26.97;14.07;;;3.40;99.90;;;;;;5024541;28;20251;-72
2022/03/03 08:50:01;;;;;;;26.20;14.00;;;3.50;99.90;;;;;;5026958;28;20199;-70
2022/03/03 08:52:48;;;;;;;30.70;14.10;;;3.70;99.90;;;;;;5025611;28;20616;-69
2022/03/03 08:55:14;;;;;;;24.77;13.77;;;3.70;99.90;;;;;;5025268;28;20226;-71
2022/03/03 08:57:41;;;;;;;30.13;14.27;;;3.80;99.90;;;;;;5020318;28;20996;-73
2022/03/03 09:00:10;;;;;;;30.37;14.87;;;4.00;99.90;;;;;;5018132;28;20208;-67
2022/03/03 09:02:40;;;;;;;31.10;14.63;;;4.20;99.90;;;;;;5023973;28;20199;-68
2022/03/03 09:05:08;;;;;;;31.63;15.67;;;4.30;99.90;;;;;;5022550;28;20235;-68
2022/03/03 09:07:35;;;;;;;30.30;15.07;;;4.50;99.90;;;;;;5022650;28;20219;-68
2022/03/03 09:10:03;;;;;;;30.60;15.73;;;4.70;99.90;;;;;;5022759;28;20289;-67
2022/03/03 09:12:29;;;;;;;24.97;13.63;;;4.70;99.90;;;;;;5021372;28;20672;-69
2022/03/03 09:14:56;;;;;;;24.97;13.80;;;4.90;99.90;;;;;;5020866;28;20222;-68
2022/03/03 09:17:23;;;;;;;24.40;14.40;;;5.00;99.90;;;;;;5022914;28;20203;-68
2022/03/03 09:19:50;;;;;;;25.47;13.63;;;5.10;99.90;;;;;;5021769;28;20544;-68
2022/03/03 09:22:16;;;;;;;25.33;13.37;;;5.10;99.90;;;;;;5022345;28;20203;-68
2022/03/03 09:24:43;;;;;;;27.77;14.03;;;5.30;99.90;;;;;;5022378;28;20205;-67
2022/03/03 09:27:10;;;;;;;28.63;12.87;;;5.30;99.90;;;;;;5023159;28;20242;-68
2022/03/03 09:29:36;;;;;;;24.53;13.27;;;5.30;99.90;;;;;;5020319;28;20211;-68
2022/03/03 09:32:04;;;;;;;24.37;13.43;;;5.40;99.90;;;;;;5020853;28;20488;-68
2022/03/03 09:34:32;;;;;;;25.07;12.97;;;5.70;99.90;;;;;;5022513;28;20251;-70
2022/03/03 09:36:58;;;;;;;23.70;12.87;;;5.90;99.90;;;;;;5024574;28;20195;-70
2022/03/03 09:39:25;;;;;;;25.93;13.40;;;6.10;99.90;;;;;;5021844;28;20588;-69
2022/03/03 09:41:53;;;;;;;22.87;12.63;;;6.30;99.90;;;;;;5020715;28;20658;-73
2022/03/03 09:44:24;;;;;;;23.47;12.77;;;6.20;99.90;;;;;;5021616;28;20203;-71
2022/03/03 09:46:52;;;;;;;25.77;12.23;;;6.30;99.90;;;;;;5023007;28;20694;-72
2022/03/03 09:49:20;;;;;;;24.90;12.70;;;6.50;99.90;;;;;;5021481;28;20208;-72
2022/03/03 09:51:47;;;;;;;25.03;13.00;;;6.60;99.90;;;;;;5023497;28;20199;-70
2022/03/03 09:54:14;;;;;;;30.33;12.40;;;6.70;99.90;;;;;;5019497;28;20215;-71
2022/03/03 09:56:41;;;;;;;21.43;12.20;;;6.80;99.90;;;;;;5021842;28;20226;-70
2022/03/03 09:59:08;;;;;;;27.37;13.83;;;6.90;99.90;;;;;;5019037;28;20651;-71
2022/03/03 10:01:35;;;;;;;26.80;12.47;;;7.10;99.90;;;;;;5021838;28;20215;-69
2022/03/03 10:04:37;;;;;;;23.53;11.73;;;7.20;99.90;;;;;;5022221;28;20612;-71
2022/03/03 10:07:09;;;;;;;21.80;11.47;;;7.20;99.90;;;;;;5019616;28;20251;-71
2022/03/03 10:09:59;;;;;;;24.50;11.00;;;7.40;99.90;;;;;;5018362;28;20652;-70
2022/03/03 10:12:41;;;;;;;21.90;11.67;;;7.30;99.90;;;;;;5021499;28;20212;-69
2022/03/03 10:15:13;;;;;;;23.77;11.47;;;7.60;99.90;;;;;;5023265;28;20219;-71
2022/03/03 10:17:40;;;;;;;20.67;10.93;;;7.80;99.90;;;;;;5019910;28;20204;-71
2022/03/03 10:20:07;;;;;;;20.93;10.10;;;7.90;99.90;;;;;;5021501;28;20539;-70
2022/03/03 10:22:45;;;;;;;19.93;10.57;;;8.00;99.90;;;;;;5022479;28;20219;-67
2022/03/03 10:25:14;;;;;;;19.50;10.43;;;8.10;99.90;;;;;;5021921;28;20234;-68
2022/03/03 10:27:41;;;;;;;16.27;9.07;;;8.10;99.90;;;;;;5017900;28;20363;-67
2022/03/03 10:30:09;;;;;;;18.20;9.67;;;8.10;99.90;;;;;;5017186;28;20220;-68
2022/03/03 10:32:38;;;;;;;14.53;9.63;;;8.20;99.90;;;;;;5021063;28;20200;-68
2022/03/03 10:35:19;;;;;;;18.53;10.03;;;8.20;99.90;;;;;;5023480;28;20303;-68
2022/03/03 10:37:47;;;;;;;18.33;9.60;;;8.40;99.90;;;;;;5017448;28;20796;-67
2022/03/03 10:40:16;;;;;;;19.93;9.50;;;8.50;99.90;;;;;;5022906;28;20206;-68
2022/03/03 10:42:46;;;;;;;21.07;10.37;;;8.80;99.90;;;;;;5021383;28;20209;-68
2022/03/03 10:45:19;;;;;;;21.30;9.60;;;8.90;99.90;;;;;;5021986;28;20245;-68
2022/03/03 10:47:58;;;;;;;15.97;8.57;;;9.00;99.90;;;;;;5022093;28;20257;-67
2022/03/03 10:50:25;;;;;;;17.47;8.57;;;9.20;99.90;;;;;;5021356;28;20206;-68
2022/03/03 10:52:52;;;;;;;17.77;9.10;;;9.30;99.90;;;;;;5024277;28;20798;-68
2022/03/03 10:55:20;;;;;;;25.43;10.67;;;9.40;99.90;;;;;;5023884;28;20223;-67
2022/03/03 10:57:58;;;;;;;22.13;9.83;;;9.50;99.90;;;;;;5026283;28;20265;-68
2022/03/03 11:00:27;;;;;;;19.33;9.83;;;9.60;99.90;;;;;;5025255;28;20199;-69
2022/03/03 11:02:56;;;;;;;15.63;8.30;;;9.70;99.90;;;;;;5023802;28;20290;-73
2022/03/03 11:05:26;;;;;;;20.30;9.13;;;9.80;99.90;;;;;;5026632;28;20277;-72
2022/03/03 11:07:53;;;;;;;19.73;8.80;;;9.80;99.90;;;;;;5041004;28;20219;-72
2022/03/03 11:10:24;;;;;;;17.10;8.90;;;9.70;99.90;;;;;;5041293;28;20203;-74
2022/03/03 11:12:52;;;;;;;17.10;8.73;;;9.80;99.90;;;;;;5024558;28;20200;-73
2022/03/03 11:15:21;;;;;;;14.80;8.70;;;9.70;99.90;;;;;;5022922;28;20219;-72
2022/03/03 11:17:49;;;;;;;15.23;8.97;;;9.80;99.90;;;;;;5025165;28;20216;-69
2022/03/03 11:20:18;;;;;;;14.50;8.57;;;9.80;99.90;;;;;;5026111;28;20286;-74
2022/03/03 11:22:46;;;;;;;13.83;8.77;;;9.90;99.90;;;;;;5024630;28;20215;-72
2022/03/03 11:25:35;;;;;;;16.13;9.23;;;10.00;99.90;;;;;;5023997;28;20239;-67
2022/03/03 11:28:15;;;;;;;16.20;8.70;;;10.10;99.90;;;;;;5025389;28;20227;-67
2022/03/03 11:30:49;;;;;;;16.10;8.80;;;10.20;99.90;;;;;;5023973;28;20191;-67
2022/03/03 11:33:18;;;;;;;17.03;9.43;;;10.20;99.90;;;;;;5035365;28;20199;-69
2022/03/03 11:35:52;;;;;;;15.07;8.90;;;10.20;99.90;;;;;;5024048;28;20226;-67
2022/03/03 11:38:20;;;;;;;13.43;8.10;;;10.30;99.90;;;;;;5025971;28;20210;-67
2022/03/03 11:40:59;;;;;;;15.50;8.90;;;10.30;99.90;;;;;;5025505;28;20214;-67
2022/03/03 11:43:27;;;;;;;14.70;7.80;;;10.30;99.90;;;;;;5025272;28;20203;-67
2022/03/03 11:45:59;;;;;;;16.13;9.17;;;10.40;99.90;;;;;;5025087;28;20223;-67
2022/03/03 11:48:38;;;;;;;13.80;8.07;;;10.50;99.90;;;;;;5025721;28;20228;-72
2022/03/03 11:51:32;;;;;;;16.13;8.30;;;10.70;99.90;;;;;;5025866;28;20203;-67
2022/03/03 11:54:30;;;;;;;15.13;8.80;;;10.70;99.90;;;;;;5024757;28;20737;-67
2022/03/03 11:57:03;;;;;;;18.03;8.83;;;10.90;99.90;;;;;;5022413;28;20199;-67
2022/03/03 11:59:35;;;;;;;16.03;8.23;;;11.00;99.90;;;;;;5014688;28;20747;-71
2022/03/03 12:02:02;;;;;;;16.23;8.93;;;11.10;99.90;;;;;;5016330;28;20207;-74
2022/03/03 12:04:29;;;;;;;17.63;8.83;;;11.10;99.90;;;;;;5018535;28;20553;-72
2022/03/03 12:06:56;;;;;;;15.10;8.10;;;11.10;99.90;;;;;;5020219;28;20198;-71
2022/03/03 12:09:30;;;;;;;13.33;7.90;;;11.10;99.90;;;;;;5021015;28;20220;-68
2022/03/03 12:12:14;;;;;;;13.70;7.87;;;11.20;99.90;;;;;;5015339;28;20196;-68
2022/03/03 12:14:54;;;;;;;13.97;7.57;;;11.30;99.90;;;;;;5022101;28;20211;-68
2022/03/03 12:17:45;;;;;;;14.30;7.50;;;11.50;99.90;;;;;;5021404;28;20210;-68
2022/03/03 12:20:24;;;;;;;16.70;8.30;;;11.50;98.70;;;;;;5022071;28;20293;-68
2022/03/03 12:23:18;;;;;;;17.00;8.57;;;11.40;99.20;;;;;;5019852;28;20238;-68
2022/03/03 12:25:47;;;;;;;13.93;7.37;;;11.40;99.50;;;;;;5019690;28;20245;-68
2022/03/03 12:28:18;;;;;;;15.20;8.17;;;11.40;98.90;;;;;;5018303;28;20225;-71
2022/03/03 12:30:46;;;;;;;14.60;7.90;;;11.40;99.30;;;;;;5017484;28;20201;-70
2022/03/03 12:33:28;;;;;;;15.73;7.53;;;11.50;98.80;;;;;;5020693;28;20221;-71
2022/03/03 12:35:59;;;;;;;16.23;7.50;;;11.60;98.60;;;;;;5019919;28;20212;-71
2022/03/03 12:38:27;;;;;;;12.27;7.63;;;11.60;98.90;;;;;;5021031;28;20193;-71
2022/03/03 12:40:54;;;;;;;16.10;7.47;;;11.80;98.60;;;;;;5017625;28;20613;-71
2022/03/03 12:43:21;;;;;;;14.90;6.63;;;11.90;97.00;;;;;;5020283;28;20221;-71
2022/03/03 12:45:49;;;;;;;14.07;6.13;;;11.90;96.90;;;;;;5017465;28;20226;-71
2022/03/03 12:48:30;;;;;;;9.97;5.90;;;11.90;95.40;;;;;;5018826;28;20238;-72
2022/03/03 12:51:08;;;;;;;7.83;4.47;;;12.00;94.30;;;;;;5018832;28;20709;-72